sensor_id;sensor_type;location;lat;lon;timestamp;pressure;altitude;pressure_sealevel;temperature;humidity
50430;BME280;36359;41.556;-8.418;2023-07-13T00:00:41;100610.41;;;21.50;64.24
50430;BME280;36359;41.556;-8.418;2023-07-13T00:03:07;100608.94;;;21.48;63.32
50430;BME280;36359;41.556;-8.418;2023-07-13T00:05:33;100603.81;;;21.38;63.40
50430;BME280;36359;41.556;-8.418;2023-07-13T00:07:59;100605.09;;;21.29;64.57
50430;BME280;36359;41.556;-8.418;2023-07-13T00:10:25;100598.75;;;20.89;65.52
50430;BME280;36359;41.556;-8.418;2023-07-13T00:12:51;100587.91;;;21.07;64.65
50430;BME280;36359;41.556;-8.418;2023-07-13T00:15:23;100590.25;;;20.83;65.21
50430;BME280;36359;41.556;-8.418;2023-07-13T00:17:54;100593.63;;;20.59;66.33
50430;BME280;36359;41.556;-8.418;2023-07-13T00:20:24;100593.00;;;20.77;65.70
50430;BME280;36359;41.556;-8.418;2023-07-13T00:22:51;100591.06;;;20.57;67.57
50430;BME280;36359;41.556;-8.418;2023-07-13T00:25:20;100585.97;;;20.54;66.75
50430;BME280;36359;41.556;-8.418;2023-07-13T00:27:47;100586.63;;;20.70;66.74
50430;BME280;36359;41.556;-8.418;2023-07-13T00:30:16;100587.03;;;20.67;66.88
50430;BME280;36359;41.556;-8.418;2023-07-13T00:32:42;100587.06;;;20.93;70.68
50430;BME280;36359;41.556;-8.418;2023-07-13T00:35:08;100586.44;;;21.04;66.30
50430;BME280;36359;41.556;-8.418;2023-07-13T00:37:34;100581.97;;;20.90;65.52
50430;BME280;36359;41.556;-8.418;2023-07-13T00:40:03;100573.25;;;21.00;66.26
50430;BME280;36359;41.556;-8.418;2023-07-13T00:42:29;100578.34;;;20.96;65.65
50430;BME280;36359;41.556;-8.418;2023-07-13T00:47:43;100567.75;;;21.06;66.27
50430;BME280;36359;41.556;-8.418;2023-07-13T00:50:12;100560.75;;;21.10;66.81
50430;BME280;36359;41.556;-8.418;2023-07-13T00:52:40;100559.25;;;21.28;65.69
50430;BME280;36359;41.556;-8.418;2023-07-13T00:55:07;100564.53;;;21.23;65.14
50430;BME280;36359;41.556;-8.418;2023-07-13T00:57:34;100566.44;;;21.29;67.76
50430;BME280;36359;41.556;-8.418;2023-07-13T01:00:04;100562.66;;;21.17;65.52
50430;BME280;36359;41.556;-8.418;2023-07-13T01:02:40;100560.97;;;21.02;65.79
50430;BME280;36359;41.556;-8.418;2023-07-13T01:05:12;100555.44;;;20.96;66.43
50430;BME280;36359;41.556;-8.418;2023-07-13T01:07:40;100553.31;;;20.78;66.72
50430;BME280;36359;41.556;-8.418;2023-07-13T01:10:08;100548.66;;;20.78;69.65
50430;BME280;36359;41.556;-8.418;2023-07-13T01:12:34;100548.66;;;20.85;72.29
50430;BME280;36359;41.556;-8.418;2023-07-13T01:15:01;100546.75;;;20.79;68.42
50430;BME280;36359;41.556;-8.418;2023-07-13T01:17:28;100550.34;;;20.73;66.91
50430;BME280;36359;41.556;-8.418;2023-07-13T01:19:54;100545.47;;;20.61;68.35
50430;BME280;36359;41.556;-8.418;2023-07-13T01:22:22;100541.59;;;20.36;68.89
50430;BME280;36359;41.556;-8.418;2023-07-13T01:24:51;100541.28;;;20.04;69.48
50430;BME280;36359;41.556;-8.418;2023-07-13T01:27:21;100540.41;;;19.97;69.59
50430;BME280;36359;41.556;-8.418;2023-07-13T01:29:50;100532.88;;;20.32;70.49
50430;BME280;36359;41.556;-8.418;2023-07-13T01:32:20;100532.03;;;20.32;69.03
50430;BME280;36359;41.556;-8.418;2023-07-13T01:34:47;100523.75;;;20.25;69.05
50430;BME280;36359;41.556;-8.418;2023-07-13T01:37:13;100516.50;;;20.04;69.68
50430;BME280;36359;41.556;-8.418;2023-07-13T01:39:39;100521.22;;;20.24;69.15
50430;BME280;36359;41.556;-8.418;2023-07-13T01:42:05;100516.75;;;20.29;68.38
50430;BME280;36359;41.556;-8.418;2023-07-13T01:44:31;100510.44;;;20.42;70.37
50430;BME280;36359;41.556;-8.418;2023-07-13T01:46:57;100521.00;;;20.32;68.60
50430;BME280;36359;41.556;-8.418;2023-07-13T01:49:23;100513.81;;;20.44;68.28
50430;BME280;36359;41.556;-8.418;2023-07-13T01:51:49;100518.47;;;20.24;68.67
50430;BME280;36359;41.556;-8.418;2023-07-13T01:54:14;100521.78;;;19.99;69.13
50430;BME280;36359;41.556;-8.418;2023-07-13T01:56:40;100523.44;;;19.93;69.47
50430;BME280;36359;41.556;-8.418;2023-07-13T01:59:08;100523.69;;;20.05;69.58
50430;BME280;36359;41.556;-8.418;2023-07-13T02:01:33;100519.91;;;20.19;69.33
50430;BME280;36359;41.556;-8.418;2023-07-13T02:03:59;100522.25;;;20.23;69.00
50430;BME280;36359;41.556;-8.418;2023-07-13T02:06:27;100523.34;;;20.28;68.96
50430;BME280;36359;41.556;-8.418;2023-07-13T02:08:54;100528.53;;;19.90;70.51
50430;BME280;36359;41.556;-8.418;2023-07-13T02:11:19;100523.94;;;20.10;71.68
50430;BME280;36359;41.556;-8.418;2023-07-13T02:13:45;100519.66;;;20.01;74.01
50430;BME280;36359;41.556;-8.418;2023-07-13T02:16:11;100514.66;;;20.38;73.76
50430;BME280;36359;41.556;-8.418;2023-07-13T02:18:37;100518.84;;;20.07;70.05
50430;BME280;36359;41.556;-8.418;2023-07-13T02:21:03;100513.81;;;19.69;71.99
50430;BME280;36359;41.556;-8.418;2023-07-13T02:23:29;100506.91;;;19.87;71.53
50430;BME280;36359;41.556;-8.418;2023-07-13T02:25:56;100512.91;;;20.04;73.49
50430;BME280;36359;41.556;-8.418;2023-07-13T02:28:22;100509.91;;;20.05;72.44
50430;BME280;36359;41.556;-8.418;2023-07-13T02:30:49;100508.44;;;20.03;71.35
50430;BME280;36359;41.556;-8.418;2023-07-13T02:33:14;100512.41;;;19.87;71.36
50430;BME280;36359;41.556;-8.418;2023-07-13T02:35:40;100509.66;;;19.80;72.48
50430;BME280;36359;41.556;-8.418;2023-07-13T02:38:06;100500.53;;;19.80;74.33
50430;BME280;36359;41.556;-8.418;2023-07-13T02:40:33;100512.88;;;19.56;74.69
50430;BME280;36359;41.556;-8.418;2023-07-13T02:42:59;100504.31;;;19.72;73.78
50430;BME280;36359;41.556;-8.418;2023-07-13T02:45:25;100512.34;;;19.73;73.45
50430;BME280;36359;41.556;-8.418;2023-07-13T02:47:51;100507.50;;;19.76;73.78
50430;BME280;36359;41.556;-8.418;2023-07-13T02:50:17;100508.88;;;19.58;73.78
50430;BME280;36359;41.556;-8.418;2023-07-13T02:52:42;100511.50;;;19.38;74.57
50430;BME280;36359;41.556;-8.418;2023-07-13T02:55:08;100504.00;;;19.19;75.76
50430;BME280;36359;41.556;-8.418;2023-07-13T02:57:34;100510.59;;;18.96;76.76
50430;BME280;36359;41.556;-8.418;2023-07-13T03:00:02;100511.97;;;19.77;79.70
50430;BME280;36359;41.556;-8.418;2023-07-13T03:02:31;100511.97;;;19.77;73.81
50430;BME280;36359;41.556;-8.418;2023-07-13T03:04:58;100503.50;;;19.85;72.83
50430;BME280;36359;41.556;-8.418;2023-07-13T03:07:24;100504.38;;;19.92;72.32
50430;BME280;36359;41.556;-8.418;2023-07-13T03:09:55;100515.75;;;19.76;72.43
50430;BME280;36359;41.556;-8.418;2023-07-13T03:12:23;100508.44;;;19.61;73.30
50430;BME280;36359;41.556;-8.418;2023-07-13T03:14:51;100498.91;;;19.50;74.71
50430;BME280;36359;41.556;-8.418;2023-07-13T03:17:17;100499.66;;;19.38;75.41
50430;BME280;36359;41.556;-8.418;2023-07-13T03:19:42;100506.66;;;19.05;76.03
50430;BME280;36359;41.556;-8.418;2023-07-13T03:22:10;100506.25;;;19.09;76.43
50430;BME280;36359;41.556;-8.418;2023-07-13T03:24:38;100507.19;;;19.22;76.55
50430;BME280;36359;41.556;-8.418;2023-07-13T03:27:05;100516.63;;;19.41;74.70
50430;BME280;36359;41.556;-8.418;2023-07-13T03:29:32;100517.59;;;19.27;74.91
50430;BME280;36359;41.556;-8.418;2023-07-13T03:31:58;100513.66;;;19.08;78.60
50430;BME280;36359;41.556;-8.418;2023-07-13T03:34:24;100519.28;;;19.28;76.91
50430;BME280;36359;41.556;-8.418;2023-07-13T03:36:50;100520.22;;;19.42;75.81
50430;BME280;36359;41.556;-8.418;2023-07-13T03:39:16;100532.72;;;19.10;75.59
50430;BME280;36359;41.556;-8.418;2023-07-13T03:41:54;100524.66;;;18.80;76.63
50430;BME280;36359;41.556;-8.418;2023-07-13T03:44:19;100526.84;;;18.91;76.13
50430;BME280;36359;41.556;-8.418;2023-07-13T03:46:49;100521.38;;;18.70;77.24
50430;BME280;36359;41.556;-8.418;2023-07-13T03:49:15;100526.72;;;18.99;78.34
50430;BME280;36359;41.556;-8.418;2023-07-13T03:51:41;100523.94;;;19.27;76.89
50430;BME280;36359;41.556;-8.418;2023-07-13T03:54:07;100525.06;;;19.05;76.46
50430;BME280;36359;41.556;-8.418;2023-07-13T03:56:32;100531.00;;;19.09;76.51
50430;BME280;36359;41.556;-8.418;2023-07-13T03:59:00;100533.13;;;19.06;76.99
50430;BME280;36359;41.556;-8.418;2023-07-13T04:01:28;100538.22;;;19.10;76.50
50430;BME280;36359;41.556;-8.418;2023-07-13T04:03:54;100543.72;;;19.10;78.98
50430;BME280;36359;41.556;-8.418;2023-07-13T04:06:26;100549.56;;;19.00;77.53
50430;BME280;36359;41.556;-8.418;2023-07-13T04:08:54;100544.72;;;19.02;76.81
50430;BME280;36359;41.556;-8.418;2023-07-13T04:11:23;100544.19;;;19.20;76.44
50430;BME280;36359;41.556;-8.418;2023-07-13T04:13:49;100547.31;;;19.10;76.29
50430;BME280;36359;41.556;-8.418;2023-07-13T04:16:16;100550.88;;;19.04;75.69
50430;BME280;36359;41.556;-8.418;2023-07-13T04:18:42;100556.78;;;19.01;75.95
50430;BME280;36359;41.556;-8.418;2023-07-13T04:21:09;100551.41;;;18.71;77.14
50430;BME280;36359;41.556;-8.418;2023-07-13T04:23:36;100544.09;;;18.78;77.14
50430;BME280;36359;41.556;-8.418;2023-07-13T04:26:02;100550.13;;;18.89;78.10
50430;BME280;36359;41.556;-8.418;2023-07-13T04:28:27;100553.13;;;18.51;78.60
50430;BME280;36359;41.556;-8.418;2023-07-13T04:30:54;100545.41;;;18.82;80.14
50430;BME280;36359;41.556;-8.418;2023-07-13T04:33:20;100550.03;;;18.60;78.88
50430;BME280;36359;41.556;-8.418;2023-07-13T04:35:52;100550.88;;;18.61;80.52
50430;BME280;36359;41.556;-8.418;2023-07-13T04:38:23;100545.84;;;18.65;79.27
50430;BME280;36359;41.556;-8.418;2023-07-13T04:40:50;100551.91;;;18.75;79.78
50430;BME280;36359;41.556;-8.418;2023-07-13T04:43:17;100554.44;;;18.76;78.40
50430;BME280;36359;41.556;-8.418;2023-07-13T04:45:42;100548.16;;;18.82;78.87
50430;BME280;36359;41.556;-8.418;2023-07-13T04:48:08;100546.97;;;18.92;77.42
50430;BME280;36359;41.556;-8.418;2023-07-13T04:50:36;100550.66;;;18.77;77.35
50430;BME280;36359;41.556;-8.418;2023-07-13T04:53:02;100554.44;;;18.76;77.57
50430;BME280;36359;41.556;-8.418;2023-07-13T04:55:29;100559.13;;;19.04;76.91
50430;BME280;36359;41.556;-8.418;2023-07-13T04:57:56;100563.59;;;18.83;77.09
50430;BME280;36359;41.556;-8.418;2023-07-13T05:00:24;100559.84;;;18.48;78.18
50430;BME280;36359;41.556;-8.418;2023-07-13T05:02:50;100562.78;;;18.47;78.52
50430;BME280;36359;41.556;-8.418;2023-07-13T05:05:16;100564.91;;;18.45;79.38
50430;BME280;36359;41.556;-8.418;2023-07-13T05:07:42;100563.44;;;18.70;79.21
50430;BME280;36359;41.556;-8.418;2023-07-13T05:10:08;100568.75;;;18.72;79.74
50430;BME280;36359;41.556;-8.418;2023-07-13T05:12:34;100570.78;;;18.63;79.92
50430;BME280;36359;41.556;-8.418;2023-07-13T05:15:00;100570.34;;;18.59;79.34
50430;BME280;36359;41.556;-8.418;2023-07-13T05:17:29;100566.25;;;18.55;78.51
50430;BME280;36359;41.556;-8.418;2023-07-13T05:19:55;100565.69;;;18.38;78.96
50430;BME280;36359;41.556;-8.418;2023-07-13T05:22:21;100570.88;;;18.12;80.45
50430;BME280;36359;41.556;-8.418;2023-07-13T05:24:46;100569.44;;;18.16;79.79
50430;BME280;36359;41.556;-8.418;2023-07-13T05:27:12;100570.44;;;18.30;79.99
50430;BME280;36359;41.556;-8.418;2023-07-13T05:29:38;100574.31;;;18.35;79.52
50430;BME280;36359;41.556;-8.418;2023-07-13T05:32:04;100566.88;;;18.51;80.41
50430;BME280;36359;41.556;-8.418;2023-07-13T05:34:29;100558.38;;;18.89;79.06
50430;BME280;36359;41.556;-8.418;2023-07-13T05:36:55;100560.91;;;18.90;76.88
50430;BME280;36359;41.556;-8.418;2023-07-13T05:39:21;100558.28;;;18.82;77.02
50430;BME280;36359;41.556;-8.418;2023-07-13T05:41:48;100561.00;;;18.75;76.25
50430;BME280;36359;41.556;-8.418;2023-07-13T05:44:14;100561.88;;;18.61;78.18
50430;BME280;36359;41.556;-8.418;2023-07-13T05:46:40;100568.88;;;18.85;77.26
50430;BME280;36359;41.556;-8.418;2023-07-13T05:49:06;100569.22;;;18.75;77.39
50430;BME280;36359;41.556;-8.418;2023-07-13T05:51:31;100577.53;;;18.82;78.71
50430;BME280;36359;41.556;-8.418;2023-07-13T05:53:57;100586.72;;;18.31;80.25
50430;BME280;36359;41.556;-8.418;2023-07-13T05:56:22;100584.13;;;18.08;82.31
50430;BME280;36359;41.556;-8.418;2023-07-13T05:59:20;100581.00;;;18.11;81.33
50430;BME280;36359;41.556;-8.418;2023-07-13T06:01:46;100590.06;;;18.27;81.06
50430;BME280;36359;41.556;-8.418;2023-07-13T06:04:11;100595.28;;;18.22;82.13
50430;BME280;36359;41.556;-8.418;2023-07-13T06:06:37;100600.41;;;18.10;82.58
50430;BME280;36359;41.556;-8.418;2023-07-13T06:09:03;100604.69;;;18.12;83.59
50430;BME280;36359;41.556;-8.418;2023-07-13T06:11:28;100600.06;;;18.34;81.97
50430;BME280;36359;41.556;-8.418;2023-07-13T06:13:55;100599.56;;;18.67;80.53
50430;BME280;36359;41.556;-8.418;2023-07-13T06:16:22;100595.50;;;18.63;80.22
50430;BME280;36359;41.556;-8.418;2023-07-13T06:18:47;100587.91;;;18.44;81.52
50430;BME280;36359;41.556;-8.418;2023-07-13T06:21:16;100594.06;;;18.67;80.34
50430;BME280;36359;41.556;-8.418;2023-07-13T06:23:43;100596.53;;;18.77;80.15
50430;BME280;36359;41.556;-8.418;2023-07-13T06:28:38;100597.31;;;18.92;81.22
50430;BME280;36359;41.556;-8.418;2023-07-13T06:31:07;100596.56;;;19.05;82.37
50430;BME280;36359;41.556;-8.418;2023-07-13T06:33:34;100599.94;;;19.63;78.62
50430;BME280;36359;41.556;-8.418;2023-07-13T06:35:59;100599.28;;;19.89;77.40
50430;BME280;36359;41.556;-8.418;2023-07-13T06:38:25;100601.19;;;19.89;77.80
50430;BME280;36359;41.556;-8.418;2023-07-13T06:40:51;100616.94;;;20.08;77.28
50430;BME280;36359;41.556;-8.418;2023-07-13T06:43:17;100613.59;;;20.19;78.24
50430;BME280;36359;41.556;-8.418;2023-07-13T06:45:45;100613.84;;;20.38;75.88
50430;BME280;36359;41.556;-8.418;2023-07-13T06:48:14;100616.00;;;20.36;74.65
50430;BME280;36359;41.556;-8.418;2023-07-13T06:50:41;100619.78;;;20.35;74.96
50430;BME280;36359;41.556;-8.418;2023-07-13T06:53:07;100617.25;;;20.40;75.18
50430;BME280;36359;41.556;-8.418;2023-07-13T06:55:33;100616.19;;;20.41;75.34
50430;BME280;36359;41.556;-8.418;2023-07-13T06:57:59;100610.59;;;20.62;75.47
50430;BME280;36359;41.556;-8.418;2023-07-13T07:00:25;100621.78;;;20.54;74.82
50430;BME280;36359;41.556;-8.418;2023-07-13T07:02:50;100621.44;;;20.23;75.89
50430;BME280;36359;41.556;-8.418;2023-07-13T07:05:16;100625.47;;;20.95;73.96
50430;BME280;36359;41.556;-8.418;2023-07-13T07:07:42;100614.03;;;21.24;73.64
50430;BME280;36359;41.556;-8.418;2023-07-13T07:10:08;100620.38;;;20.98;73.04
50430;BME280;36359;41.556;-8.418;2023-07-13T07:12:34;100624.81;;;20.86;73.52
50430;BME280;36359;41.556;-8.418;2023-07-13T07:14:59;100616.31;;;20.74;73.15
50430;BME280;36359;41.556;-8.418;2023-07-13T07:17:25;100617.41;;;20.86;74.23
50430;BME280;36359;41.556;-8.418;2023-07-13T07:19:52;100626.78;;;21.45;72.71
50430;BME280;36359;41.556;-8.418;2023-07-13T07:22:20;100633.13;;;21.13;72.33
50430;BME280;36359;41.556;-8.418;2023-07-13T07:24:46;100633.13;;;21.13;72.20
50430;BME280;36359;41.556;-8.418;2023-07-13T07:27:12;100630.78;;;21.09;73.29
50430;BME280;36359;41.556;-8.418;2023-07-13T07:29:38;100637.38;;;21.15;72.37
50430;BME280;36359;41.556;-8.418;2023-07-13T07:32:04;100642.44;;;21.65;71.10
50430;BME280;36359;41.556;-8.418;2023-07-13T07:34:30;100640.34;;;21.40;70.84
50430;BME280;36359;41.556;-8.418;2023-07-13T07:36:59;100643.53;;;21.37;71.30
50430;BME280;36359;41.556;-8.418;2023-07-13T07:39:26;100648.28;;;22.15;70.62
50430;BME280;36359;41.556;-8.418;2023-07-13T07:41:52;100653.41;;;22.18;68.52
50430;BME280;36359;41.556;-8.418;2023-07-13T07:44:18;100654.78;;;22.40;69.11
50430;BME280;36359;41.556;-8.418;2023-07-13T07:46:44;100647.47;;;22.53;68.30
50430;BME280;36359;41.556;-8.418;2023-07-13T07:49:09;100646.44;;;22.54;67.54
50430;BME280;36359;41.556;-8.418;2023-07-13T07:51:36;100636.56;;;22.64;67.32
50430;BME280;36359;41.556;-8.418;2023-07-13T07:54:02;100644.34;;;22.42;67.58
50430;BME280;36359;41.556;-8.418;2023-07-13T07:56:28;100651.38;;;22.45;67.81
50430;BME280;36359;41.556;-8.418;2023-07-13T07:58:54;100638.88;;;22.67;67.52
50430;BME280;36359;41.556;-8.418;2023-07-13T08:01:19;100636.34;;;23.04;66.14
50430;BME280;36359;41.556;-8.418;2023-07-13T08:03:45;100633.31;;;23.12;65.36
50430;BME280;36359;41.556;-8.418;2023-07-13T08:06:11;100636.13;;;23.56;63.94
50430;BME280;36359;41.556;-8.418;2023-07-13T08:08:37;100632.06;;;23.33;63.94
50430;BME280;36359;41.556;-8.418;2023-07-13T08:11:04;100622.91;;;23.33;66.00
50430;BME280;36359;41.556;-8.418;2023-07-13T08:13:30;100621.72;;;24.09;63.82
50430;BME280;36359;41.556;-8.418;2023-07-13T08:15:59;100615.41;;;23.84;63.42
50430;BME280;36359;41.556;-8.418;2023-07-13T08:18:25;100625.22;;;23.11;64.26
50430;BME280;36359;41.556;-8.418;2023-07-13T08:20:50;100610.88;;;22.19;67.58
50430;BME280;36359;41.556;-8.418;2023-07-13T08:23:17;100615.63;;;22.43;67.72
50430;BME280;36359;41.556;-8.418;2023-07-13T08:25:47;100620.25;;;22.18;68.59
50430;BME280;36359;41.556;-8.418;2023-07-13T08:28:15;100605.34;;;22.96;67.99
50430;BME280;36359;41.556;-8.418;2023-07-13T08:30:41;100607.44;;;23.25;64.90
50430;BME280;36359;41.556;-8.418;2023-07-13T08:33:06;100616.75;;;23.31;64.18
50430;BME280;36359;41.556;-8.418;2023-07-13T08:35:32;100614.88;;;22.93;65.70
50430;BME280;36359;41.556;-8.418;2023-07-13T08:37:58;100608.25;;;23.51;64.96
50430;BME280;36359;41.556;-8.418;2023-07-13T08:40:27;100609.69;;;23.10;65.10
50430;BME280;36359;41.556;-8.418;2023-07-13T08:42:58;100608.34;;;22.87;67.26
50430;BME280;36359;41.556;-8.418;2023-07-13T08:45:30;100620.25;;;22.88;64.51
50430;BME280;36359;41.556;-8.418;2023-07-13T08:50:56;100613.09;;;23.12;64.73
50430;BME280;36359;41.556;-8.418;2023-07-13T08:53:24;100617.38;;;24.13;62.80
50430;BME280;36359;41.556;-8.418;2023-07-13T08:55:57;100602.09;;;23.92;63.29
50430;BME280;36359;41.556;-8.418;2023-07-13T08:58:25;100607.84;;;23.91;61.32
50430;BME280;36359;41.556;-8.418;2023-07-13T09:03:31;100614.63;;;23.95;62.99
50430;BME280;36359;41.556;-8.418;2023-07-13T09:06:02;100617.50;;;24.37;61.01
50430;BME280;36359;41.556;-8.418;2023-07-13T09:11:23;100616.66;;;23.63;62.59
50430;BME280;36359;41.556;-8.418;2023-07-13T09:16:36;100613.72;;;23.83;62.12
50430;BME280;36359;41.556;-8.418;2023-07-13T09:19:06;100613.94;;;23.81;62.47
50430;BME280;36359;41.556;-8.418;2023-07-13T09:21:37;100613.88;;;24.06;62.52
50430;BME280;36359;41.556;-8.418;2023-07-13T09:24:39;100618.94;;;24.58;61.28
50430;BME280;36359;41.556;-8.418;2023-07-13T09:29:36;100615.19;;;25.24;59.02
50430;BME280;36359;41.556;-8.418;2023-07-13T09:32:09;100618.94;;;25.30;59.00
50430;BME280;36359;41.556;-8.418;2023-07-13T09:34:36;100609.25;;;25.44;58.20
50430;BME280;36359;41.556;-8.418;2023-07-13T09:37:01;100610.13;;;25.56;57.69
50430;BME280;36359;41.556;-8.418;2023-07-13T09:39:30;100620.84;;;25.65;57.43
50430;BME280;36359;41.556;-8.418;2023-07-13T09:42:13;100625.91;;;25.68;57.67
50430;BME280;36359;41.556;-8.418;2023-07-13T09:44:58;100623.03;;;25.63;57.60
50430;BME280;36359;41.556;-8.418;2023-07-13T09:47:29;100616.03;;;25.60;55.57
50430;BME280;36359;41.556;-8.418;2023-07-13T09:49:58;100619.41;;;25.74;56.10
50430;BME280;36359;41.556;-8.418;2023-07-13T09:52:25;100616.38;;;25.40;58.30
50430;BME280;36359;41.556;-8.418;2023-07-13T09:54:54;100617.59;;;25.44;58.37
50430;BME280;36359;41.556;-8.418;2023-07-13T09:59:57;100611.94;;;25.63;54.60
50430;BME280;36359;41.556;-8.418;2023-07-13T10:02:35;100622.22;;;25.50;55.93
50430;BME280;36359;41.556;-8.418;2023-07-13T10:05:11;100617.59;;;25.68;57.08
50430;BME280;36359;41.556;-8.418;2023-07-13T10:07:43;100610.22;;;25.85;54.62
50430;BME280;36359;41.556;-8.418;2023-07-13T10:10:20;100607.69;;;25.72;53.28
50430;BME280;36359;41.556;-8.418;2023-07-13T10:12:47;100614.34;;;25.94;54.32
50430;BME280;36359;41.556;-8.418;2023-07-13T10:15:16;100617.22;;;25.99;53.38
50430;BME280;36359;41.556;-8.418;2023-07-13T10:17:43;100612.91;;;25.68;52.75
50430;BME280;36359;41.556;-8.418;2023-07-13T10:20:09;100617.34;;;25.81;52.38
50430;BME280;36359;41.556;-8.418;2023-07-13T10:25:24;100605.03;;;25.65;53.76
50430;BME280;36359;41.556;-8.418;2023-07-13T10:27:58;100604.91;;;25.60;55.47
50430;BME280;36359;41.556;-8.418;2023-07-13T10:30:33;100603.13;;;25.42;52.52
50430;BME280;36359;41.556;-8.418;2023-07-13T10:33:10;100604.56;;;25.56;52.56
50430;BME280;36359;41.556;-8.418;2023-07-13T10:35:37;100607.19;;;25.75;51.94
50430;BME280;36359;41.556;-8.418;2023-07-13T10:38:10;100606.38;;;25.63;51.51
50430;BME280;36359;41.556;-8.418;2023-07-13T10:40:39;100600.56;;;25.88;51.90
50430;BME280;36359;41.556;-8.418;2023-07-13T10:43:13;100602.22;;;26.12;51.74
50430;BME280;36359;41.556;-8.418;2023-07-13T10:45:41;100597.75;;;25.76;51.41
50430;BME280;36359;41.556;-8.418;2023-07-13T10:48:12;100592.63;;;26.20;50.45
50430;BME280;36359;41.556;-8.418;2023-07-13T10:50:44;100586.66;;;26.28;48.82
50430;BME280;36359;41.556;-8.418;2023-07-13T10:58:41;100596.84;;;26.63;46.31
50430;BME280;36359;41.556;-8.418;2023-07-13T11:01:13;100594.56;;;26.60;47.23
50430;BME280;36359;41.556;-8.418;2023-07-13T11:04:01;100583.13;;;26.90;45.13
50430;BME280;36359;41.556;-8.418;2023-07-13T11:17:49;100581.22;;;27.24;43.81
50430;BME280;36359;41.556;-8.418;2023-07-13T11:22:52;100565.84;;;27.38;42.11
50430;BME280;36359;41.556;-8.418;2023-07-13T11:25:25;100564.84;;;27.28;39.65
50430;BME280;36359;41.556;-8.418;2023-07-13T11:30:36;100561.53;;;27.48;45.25
50430;BME280;36359;41.556;-8.418;2023-07-13T11:35:36;100557.56;;;27.44;41.52
50430;BME280;36359;41.556;-8.418;2023-07-13T11:38:13;100563.53;;;27.52;44.01
50430;BME280;36359;41.556;-8.418;2023-07-13T11:40:43;100559.44;;;27.77;40.75
50430;BME280;36359;41.556;-8.418;2023-07-13T11:43:13;100552.69;;;28.17;37.95
50430;BME280;36359;41.556;-8.418;2023-07-13T11:45:40;100547.16;;;27.95;37.20
50430;BME280;36359;41.556;-8.418;2023-07-13T11:48:27;100541.44;;;27.84;39.84
50430;BME280;36359;41.556;-8.418;2023-07-13T11:50:57;100530.66;;;27.93;42.20
50430;BME280;36359;41.556;-8.418;2023-07-13T11:53:27;100532.16;;;28.01;36.61
50430;BME280;36359;41.556;-8.418;2023-07-13T11:55:54;100541.22;;;28.13;34.72
50430;BME280;36359;41.556;-8.418;2023-07-13T11:58:23;100535.88;;;28.12;38.04
50430;BME280;36359;41.556;-8.418;2023-07-13T12:00:51;100542.03;;;28.36;34.73
50430;BME280;36359;41.556;-8.418;2023-07-13T12:03:21;100532.13;;;28.45;38.27
50430;BME280;36359;41.556;-8.418;2023-07-13T12:05:57;100533.41;;;28.64;34.15
50430;BME280;36359;41.556;-8.418;2023-07-13T12:08:23;100527.63;;;28.71;34.15
50430;BME280;36359;41.556;-8.418;2023-07-13T12:10:56;100524.50;;;28.67;34.18
50430;BME280;36359;41.556;-8.418;2023-07-13T12:13:22;100533.47;;;28.69;32.34
50430;BME280;36359;41.556;-8.418;2023-07-13T12:15:49;100522.22;;;28.59;37.13
50430;BME280;36359;41.556;-8.418;2023-07-13T12:18:29;100524.25;;;29.01;29.57
50430;BME280;36359;41.556;-8.418;2023-07-13T12:20:57;100526.91;;;29.18;30.31
50430;BME280;36359;41.556;-8.418;2023-07-13T12:25:51;100515.38;;;29.52;28.61
50430;BME280;36359;41.556;-8.418;2023-07-13T12:30:58;100507.66;;;28.89;24.25
50430;BME280;36359;41.556;-8.418;2023-07-13T12:33:27;100498.00;;;28.70;22.51
50430;BME280;36359;41.556;-8.418;2023-07-13T12:35:53;100498.47;;;28.57;27.23
50430;BME280;36359;41.556;-8.418;2023-07-13T12:38:19;100498.31;;;28.73;27.17
50430;BME280;36359;41.556;-8.418;2023-07-13T12:40:50;100493.44;;;28.91;29.50
50430;BME280;36359;41.556;-8.418;2023-07-13T12:43:19;100490.09;;;28.57;27.08
50430;BME280;36359;41.556;-8.418;2023-07-13T12:45:56;100491.06;;;28.72;24.91
50430;BME280;36359;41.556;-8.418;2023-07-13T12:48:22;100488.16;;;28.94;27.95
50430;BME280;36359;41.556;-8.418;2023-07-13T12:50:49;100484.25;;;28.95;28.15
50430;BME280;36359;41.556;-8.418;2023-07-13T12:53:19;100482.94;;;29.03;26.13
50430;BME280;36359;41.556;-8.418;2023-07-13T12:55:46;100487.06;;;28.95;26.25
50430;BME280;36359;41.556;-8.418;2023-07-13T13:00:55;100480.63;;;29.37;29.08
50430;BME280;36359;41.556;-8.418;2023-07-13T13:05:59;100479.75;;;29.32;28.79
50430;BME280;36359;41.556;-8.418;2023-07-13T13:08:25;100473.09;;;29.33;29.91
50430;BME280;36359;41.556;-8.418;2023-07-13T13:10:51;100471.47;;;29.52;30.67
50430;BME280;36359;41.556;-8.418;2023-07-13T13:13:17;100474.44;;;29.78;31.40
50430;BME280;36359;41.556;-8.418;2023-07-13T13:15:43;100470.34;;;29.48;28.96
50430;BME280;36359;41.556;-8.418;2023-07-13T13:18:15;100477.63;;;29.49;28.09
50430;BME280;36359;41.556;-8.418;2023-07-13T13:20:41;100459.59;;;29.82;27.36
50430;BME280;36359;41.556;-8.418;2023-07-13T13:23:15;100463.38;;;29.51;25.67
50430;BME280;36359;41.556;-8.418;2023-07-13T13:25:50;100466.72;;;29.48;25.96
50430;BME280;36359;41.556;-8.418;2023-07-13T13:28:20;100468.22;;;29.65;27.60
50430;BME280;36359;41.556;-8.418;2023-07-13T13:30:48;100470.56;;;29.89;29.03
50430;BME280;36359;41.556;-8.418;2023-07-13T13:33:16;100460.47;;;29.83;28.16
50430;BME280;36359;41.556;-8.418;2023-07-13T13:35:43;100453.50;;;29.96;30.98
50430;BME280;36359;41.556;-8.418;2023-07-13T13:38:11;100455.53;;;30.21;27.37
50430;BME280;36359;41.556;-8.418;2023-07-13T13:40:37;100461.44;;;30.35;25.16
50430;BME280;36359;41.556;-8.418;2023-07-13T13:43:18;100461.66;;;30.18;24.33